createdAt,value
2018-04-19T00:00:15.231Z,95.46
2018-04-19T00:01:15.221Z,95.46
2018-04-19T00:02:15.227Z,95.37
2018-04-19T00:03:15.210Z,95.17
2018-04-19T00:04:15.202Z,95.94
2018-04-19T00:05:14.943Z,95.75
2018-04-19T00:06:15.189Z,96.13
2018-04-19T00:07:15.183Z,95.75
2018-04-19T00:08:15.176Z,95.84
2018-04-19T00:09:15.169Z,95.84
2018-04-19T00:10:15.162Z,96.03
2018-04-19T00:11:15.159Z,95.84
2018-04-19T00:12:15.147Z,96.13
2018-04-19T00:13:15.157Z,95.94
2018-04-19T00:14:15.132Z,95.75
2018-04-19T00:15:15.127Z,95.94
2018-04-19T00:16:15.119Z,96.03
2018-04-19T00:17:15.117Z,96.13
2018-04-19T00:18:15.104Z,95.56
2018-04-19T00:19:15.102Z,95.56
2018-04-19T00:20:15.099Z,95.56
2018-04-19T00:21:15.084Z,95.56
2018-04-19T00:22:15.076Z,95.56
2018-04-19T00:23:15.069Z,96.13
2018-04-19T00:24:15.068Z,95.84
2018-04-19T00:25:15.057Z,95.75
2018-04-19T00:26:15.052Z,95.65
2018-04-19T00:27:15.045Z,95.75
2018-04-19T00:28:15.050Z,95.65
2018-04-19T00:29:15.026Z,95.84
2018-04-19T00:30:14.766Z,95.84
2018-04-19T00:31:15.027Z,95.75
2018-04-19T00:32:14.752Z,95.65
2018-04-19T00:33:15.005Z,95.84
2018-04-19T00:34:14.990Z,96.13
2018-04-19T00:35:14.735Z,95.94
2018-04-19T00:36:14.977Z,96.13
2018-04-19T00:37:14.972Z,95.84
2018-04-19T00:38:14.966Z,96.13
2018-04-19T00:39:14.958Z,96.61
2018-04-19T00:40:14.950Z,96.51
2018-04-19T00:41:14.948Z,96.61
2018-04-19T00:42:14.682Z,96.7
2018-04-19T00:43:14.928Z,96.32
2018-04-19T00:44:14.923Z,96.32
2018-04-19T00:45:14.915Z,96.32
2018-04-19T00:46:14.919Z,96.32
2018-04-19T00:47:14.646Z,95.84
2018-04-19T00:48:14.892Z,96.36
2018-04-19T00:49:14.884Z,96.22
2018-04-19T00:50:14.888Z,96.32
2018-04-19T00:51:14.869Z,96.32
2018-04-19T00:52:14.865Z,96.13
2018-04-19T00:53:15.111Z,96.41
2018-04-19T00:54:14.851Z,95.84
2018-04-19T00:55:14.840Z,95.75
2018-04-19T00:56:14.841Z,96.22
2018-04-19T00:57:14.831Z,95.75
2018-04-19T00:58:14.821Z,95.94
2018-04-19T00:59:14.812Z,95.37
2018-04-19T01:00:14.806Z,95.94
2018-04-19T01:01:14.804Z,95.84
2018-04-19T01:02:14.555Z,95.84
2018-04-19T01:03:14.783Z,95.75
2018-04-19T01:04:14.523Z,95.84
2018-04-19T01:05:14.770Z,95.75
2018-04-19T01:06:14.762Z,95.75
2018-04-19T01:07:14.754Z,95.65
2018-04-19T01:08:14.747Z,96.03
2018-04-19T01:09:14.745Z,95.94
2018-04-19T01:10:14.487Z,95.94
2018-04-19T01:11:14.726Z,95.94
2018-04-19T01:12:14.721Z,95.84
2018-04-19T01:13:14.459Z,95.32
2018-04-19T01:14:14.704Z,95.7
2018-04-19T01:15:14.696Z,95.51
2018-04-19T01:16:14.691Z,95.56
2018-04-19T01:17:14.685Z,95.89
2018-04-19T01:18:14.676Z,95.94
2018-04-19T01:19:14.671Z,95.61
2018-04-19T01:20:14.661Z,95.75
2018-04-19T01:21:14.402Z,95.79
2018-04-19T01:22:14.647Z,95.7
2018-04-19T01:23:14.640Z,95.94
2018-04-19T01:24:14.883Z,96.13
2018-04-19T01:25:14.628Z,95.89
2018-04-19T01:26:14.365Z,95.89
2018-04-19T01:27:14.610Z,95.79
2018-04-19T01:28:14.604Z,95.89
2018-04-19T01:29:14.597Z,95.89
2018-04-19T01:30:14.337Z,95.89
2018-04-19T01:31:14.582Z,96.08
2018-04-19T01:32:14.575Z,95.7
2018-04-19T01:33:14.315Z,95.61
2018-04-19T01:34:14.566Z,95.61
2018-04-19T01:35:14.554Z,95.61
2018-04-19T01:36:14.311Z,95.51
2018-04-19T01:37:14.546Z,95.79
2018-04-19T01:38:14.537Z,96.17
2018-04-19T01:39:14.531Z,95.79
2018-04-19T01:40:14.516Z,95.89
2018-04-19T01:41:14.513Z,95.61
2018-04-19T01:42:14.501Z,95.79
2018-04-19T01:43:14.505Z,95.89
2018-04-19T01:44:14.488Z,95.79
2018-04-19T01:45:14.496Z,95.7
2018-04-19T01:46:14.479Z,95.89
2018-04-19T01:47:14.212Z,95.89
2018-04-19T01:48:14.457Z,95.61
2018-04-19T01:49:14.449Z,95.7
2018-04-19T01:50:14.443Z,95.7
2018-04-19T01:51:14.437Z,95.89
2018-04-19T01:52:14.450Z,96.08
2018-04-19T01:53:14.168Z,95.89
2018-04-19T01:54:14.413Z,96.08
2018-04-19T01:55:14.410Z,96.65
2018-04-19T01:56:14.399Z,96.17
2018-04-19T01:57:14.390Z,96.56
2018-04-19T01:58:14.389Z,96.08
2018-04-19T01:59:14.375Z,96.17
2018-04-19T02:00:14.368Z,96.56
2018-04-19T02:01:14.359Z,96.56
2018-04-19T02:02:14.358Z,96.27
2018-04-19T02:03:14.345Z,96.17
2018-04-19T02:04:14.338Z,96.36
2018-04-19T02:05:14.331Z,96.27
2018-04-19T02:06:14.326Z,96.27
2018-04-19T02:07:14.091Z,96.27
2018-04-19T02:08:14.311Z,96.27
2018-04-19T02:09:14.301Z,95.89
2018-04-19T02:10:14.041Z,96.36
2018-04-19T02:11:14.289Z,96.17
2018-04-19T02:12:14.282Z,96.36
2018-04-19T02:13:14.274Z,96.27
2018-04-19T02:14:14.264Z,96.56
2018-04-19T02:15:14.266Z,96.56
2018-04-19T02:16:14.257Z,96.56
2018-04-19T02:17:14.261Z,96.36
2018-04-19T02:18:14.237Z,96.27
2018-04-19T02:19:14.385Z,96.94
2018-04-19T02:20:14.219Z,96.94
2018-04-19T02:21:14.219Z,96.94
2018-04-19T02:22:14.202Z,96.27
2018-04-19T02:23:14.196Z,96.65
2018-04-19T02:24:14.198Z,96.94
2018-04-19T02:25:14.180Z,96.08
2018-04-19T02:26:14.175Z,96.65
2018-04-19T02:27:14.169Z,96.8
2018-04-19T02:28:14.158Z,96.6
2018-04-19T02:29:14.155Z,96.32
2018-04-19T02:30:14.145Z,96.32
2018-04-19T02:31:13.892Z,96.22
2018-04-19T02:32:14.133Z,96.03
2018-04-19T02:33:14.123Z,96.22
2018-04-19T02:34:14.114Z,96.8
2018-04-19T02:35:14.108Z,96.8
2018-04-19T02:36:14.098Z,96.8
2018-04-19T02:37:14.096Z,96.7
2018-04-19T02:38:14.095Z,96.51
2018-04-19T02:39:14.082Z,96.6
2018-04-19T02:40:14.072Z,96.98
2018-04-19T02:41:14.069Z,96.8
2018-04-19T02:42:14.060Z,96.41
2018-04-19T02:43:13.792Z,96.51
2018-04-19T02:44:14.037Z,96.98
2018-04-19T02:45:14.030Z,96.98
2018-04-19T02:46:14.023Z,96.8
2018-04-19T02:47:14.021Z,96.98
2018-04-19T02:48:14.009Z,97.27
2018-04-19T02:49:14.005Z,97.27
2018-04-19T02:50:13.993Z,97.17
2018-04-19T02:51:13.984Z,97.08
2018-04-19T02:52:13.975Z,96.89
2018-04-19T02:53:13.971Z,96.89
2018-04-19T02:54:13.963Z,96.6
2018-04-19T02:55:13.956Z,97.27
2018-04-19T02:56:13.949Z,97.56
2018-04-19T02:57:13.940Z,97.36
2018-04-19T02:58:13.946Z,97.17
2018-04-19T02:59:13.925Z,97.08
2018-04-19T03:00:13.915Z,97.36
2018-04-19T03:01:13.914Z,97.17
2018-04-19T03:02:13.899Z,97.27
2018-04-19T03:03:13.893Z,97.27
2018-04-19T03:04:13.895Z,96.7
2018-04-19T03:05:13.882Z,97.27
2018-04-19T03:06:13.878Z,97.17
2018-04-19T03:07:13.869Z,97.56
2018-04-19T03:08:13.864Z,97.36
2018-04-19T03:09:13.850Z,97.27
2018-04-19T03:10:13.845Z,97.27
2018-04-19T03:11:13.832Z,97.08
2018-04-19T03:12:13.857Z,97.17
2018-04-19T03:13:13.825Z,97.36
2018-04-19T03:14:13.806Z,97.17
2018-04-19T03:15:13.800Z,97.46
2018-04-19T03:16:13.792Z,97.36
2018-04-19T03:17:13.792Z,97.17
2018-04-19T03:18:13.776Z,97.17
2018-04-19T03:19:13.772Z,96.98
2018-04-19T03:20:13.768Z,97.27
2018-04-19T03:21:13.499Z,97.36
2018-04-19T03:22:13.743Z,97.17
2018-04-19T03:23:13.738Z,97.17
2018-04-19T03:24:13.727Z,97.17
2018-04-19T03:25:13.721Z,97.36
2018-04-19T03:26:13.718Z,97.27
2018-04-19T03:27:13.716Z,97.56
2018-04-19T03:28:13.699Z,97.36
2018-04-19T03:29:13.692Z,97.27
2018-04-19T03:30:13.449Z,97.36
2018-04-19T03:31:13.678Z,97.36
2018-04-19T03:32:13.666Z,97.56
2018-04-19T03:33:13.661Z,97.36
2018-04-19T03:34:13.651Z,97.27
2018-04-19T03:35:13.642Z,97.36
2018-04-19T03:36:13.635Z,97.36
2018-04-19T03:37:13.628Z,97.27
2018-04-19T03:38:13.368Z,97.17
2018-04-19T03:39:13.614Z,97.27
2018-04-19T03:40:13.603Z,97.46
2018-04-19T03:41:13.601Z,97.65
2018-04-19T03:42:13.588Z,97.46
2018-04-19T03:43:13.598Z,97.56
2018-04-19T03:44:13.573Z,97.36
2018-04-19T03:45:13.579Z,97.17
2018-04-19T03:46:13.561Z,97.36
2018-04-19T03:47:13.553Z,97.36
2018-04-19T03:48:13.543Z,97.17
2018-04-19T03:49:13.532Z,97.56
2018-04-19T03:50:13.529Z,97.36
2018-04-19T03:51:13.517Z,97.36
2018-04-19T03:52:13.259Z,97.36
2018-04-19T03:53:13.502Z,97.46
2018-04-19T03:54:13.494Z,96.98
2018-04-19T03:55:13.487Z,97.36
2018-04-19T03:56:13.479Z,97.08
2018-04-19T03:57:13.469Z,97.36
2018-04-19T03:58:13.462Z,96.98
2018-04-19T03:59:13.456Z,96.98
2018-04-19T04:00:13.717Z,97.36
2018-04-19T04:01:13.656Z,97.36
2018-04-19T04:02:13.438Z,97.27
2018-04-19T04:03:13.171Z,97.17
2018-04-19T04:04:13.420Z,97.08
2018-04-19T04:05:13.421Z,97.36
2018-04-19T04:06:13.401Z,97.17
2018-04-19T04:07:13.391Z,97.27
2018-04-19T04:08:13.132Z,97.08
2018-04-19T04:09:13.379Z,96.98
2018-04-19T04:10:13.372Z,96.98
2018-04-19T04:11:13.363Z,97.17
2018-04-19T04:12:13.354Z,96.98
2018-04-19T04:13:13.343Z,96.89
2018-04-19T04:14:13.085Z,96.98
2018-04-19T04:15:13.344Z,96.98
2018-04-19T04:16:13.322Z,97.17
2018-04-19T04:17:13.062Z,97.36
2018-04-19T04:18:13.308Z,97.17
2018-04-19T04:19:13.296Z,97.08
2018-04-19T04:20:13.038Z,97.36
2018-04-19T04:21:13.283Z,97.08
2018-04-19T04:22:13.022Z,97.61
2018-04-19T04:23:13.014Z,97.32
2018-04-19T04:24:13.261Z,97.32
2018-04-19T04:25:13.260Z,97.41
2018-04-19T04:26:13.245Z,97.51
2018-04-19T04:27:13.238Z,97.03
2018-04-19T04:28:13.229Z,96.84
2018-04-19T04:29:12.970Z,97.13
2018-04-19T04:30:13.230Z,97.46
2018-04-19T04:31:13.656Z,96.51
2018-04-19T04:32:13.200Z,96.89
2018-04-19T04:33:13.195Z,96.7
2018-04-19T04:34:13.185Z,96.22
2018-04-19T04:35:13.212Z,96.22
2018-04-19T04:36:13.172Z,96.37
2018-04-19T04:37:13.167Z,96.08
2018-04-19T04:38:13.158Z,95.51
2018-04-19T04:39:13.156Z,95.7
2018-04-19T04:40:13.159Z,95.89
2018-04-19T04:41:13.149Z,95.84
2018-04-19T04:42:13.134Z,94.89
2018-04-19T04:43:12.881Z,94.41
2018-04-19T04:44:13.125Z,94.79
2018-04-19T04:45:13.113Z,93.98
2018-04-19T04:46:13.109Z,94.27
2018-04-19T04:47:12.850Z,94.07
2018-04-19T04:48:13.098Z,93.55
2018-04-19T04:49:13.094Z,93.45
2018-04-19T04:50:13.091Z,92.74
2018-04-19T04:51:12.830Z,93.4
2018-04-19T04:52:12.828Z,92.93
2018-04-19T04:53:13.071Z,92.07
2018-04-19T04:54:12.813Z,92.49
2018-04-19T04:55:13.064Z,92.4
2018-04-19T04:56:13.057Z,91.49
2018-04-19T04:57:13.052Z,90.91
2018-04-19T04:58:13.047Z,90.91
2018-04-19T04:59:13.043Z,90.09
2018-04-19T05:00:13.171Z,89.52
2018-04-19T05:01:13.038Z,89.04
2018-04-19T05:02:13.032Z,88.7
2018-04-19T05:03:12.773Z,88.32
2018-04-19T05:04:13.023Z,88.08
2018-04-19T05:05:13.030Z,87.41
2018-04-19T05:06:13.021Z,87.5
2018-04-19T05:07:13.012Z,87.16
2018-04-19T05:08:13.010Z,86.58
2018-04-19T05:09:13.007Z,86.34
2018-04-19T05:10:13.006Z,85.48
2018-04-19T05:11:13.003Z,84.18
2018-04-19T05:12:12.998Z,84.37
2018-04-19T05:13:13.003Z,84.08
2018-04-19T05:14:12.740Z,83.45
2018-04-19T05:15:12.748Z,83.16
2018-04-19T05:16:12.740Z,82.63
2018-04-19T05:17:12.987Z,82.43
2018-04-19T05:18:12.987Z,81.71
2018-04-19T05:19:12.989Z,81.61
2018-04-19T05:20:12.983Z,80.69
2018-04-19T05:21:12.980Z,80.6
2018-04-19T05:22:12.980Z,80.25
2018-04-19T05:23:12.979Z,79.58
2018-04-19T05:24:12.984Z,78.81
2018-04-19T05:25:12.977Z,78.46
2018-04-19T05:26:13.011Z,77.92
2018-04-19T05:27:12.979Z,77.73
2018-04-19T05:28:12.977Z,76.86
2018-04-19T05:29:12.977Z,77
2018-04-19T05:30:12.725Z,76.23
2018-04-19T05:31:12.978Z,75.4
2018-04-19T05:32:12.979Z,74.91
2018-04-19T05:33:12.728Z,74.05
2018-04-19T05:34:12.978Z,73.69
2018-04-19T05:35:12.980Z,73.21
2018-04-19T05:36:12.728Z,73.5
2018-04-19T05:37:13.086Z,72.48
2018-04-19T05:38:12.988Z,72.48
2018-04-19T05:39:13.003Z,72.19
2018-04-19T05:40:12.989Z,71.74
2018-04-19T05:41:12.745Z,71.16
2018-04-19T05:42:12.994Z,70.32
2018-04-19T05:43:12.994Z,69.56
2018-04-19T05:44:12.998Z,69.07
2018-04-19T05:45:13.002Z,67.94
2018-04-19T05:46:13.010Z,67.27
2018-04-19T05:47:13.005Z,66.43
2018-04-19T05:48:12.761Z,65.85
2018-04-19T05:49:13.022Z,65.66
2018-04-19T05:50:13.019Z,65.08
2018-04-19T05:51:13.021Z,63.95
2018-04-19T05:52:13.023Z,63.66
2018-04-19T05:53:12.775Z,63.31
2018-04-19T05:54:13.031Z,62.82
2018-04-19T05:55:13.040Z,61.66
2018-04-19T05:56:13.040Z,61.3
2018-04-19T05:57:13.052Z,60.62
2018-04-19T05:58:13.057Z,60.72
2018-04-19T05:59:12.807Z,60.24
2018-04-19T06:00:13.060Z,60.36
2018-04-19T06:01:12.834Z,58.91
2018-04-19T06:02:13.071Z,58.45
2018-04-19T06:03:13.149Z,57.58
2018-04-19T06:04:13.084Z,57.39
2018-04-19T06:05:13.090Z,56.54
2018-04-19T06:06:13.299Z,56.05
2018-04-19T06:07:13.096Z,56.64
2018-04-19T06:08:13.107Z,55.5
2018-04-19T06:09:13.109Z,55.02
2018-04-19T06:10:13.113Z,55.02
2018-04-19T06:11:13.121Z,54.53
2018-04-19T06:12:13.134Z,53.95
2018-04-19T06:13:13.134Z,54.17
2018-04-19T06:14:13.143Z,53.88
2018-04-19T06:15:13.205Z,54.17
2018-04-19T06:16:13.156Z,53.81
2018-04-19T06:17:13.165Z,53.03
2018-04-19T06:18:12.916Z,53.32
2018-04-19T06:19:12.928Z,52.57
2018-04-19T06:20:13.187Z,51.99
2018-04-19T06:21:13.190Z,51.79
2018-04-19T06:22:13.200Z,51.79
2018-04-19T06:23:13.208Z,51.79
2018-04-19T06:24:13.212Z,51.33
2018-04-19T06:25:13.235Z,50.95
2018-04-19T06:26:13.229Z,50.58
2018-04-19T06:27:13.237Z,49.61
2018-04-19T06:28:13.244Z,49.12
2018-04-19T06:29:13.318Z,48.46
2018-04-19T06:30:13.299Z,48.29
2018-04-19T06:31:13.282Z,48
2018-04-19T06:32:13.277Z,47.42
2018-04-19T06:33:13.292Z,46.64
2018-04-19T06:34:13.045Z,46.47
2018-04-19T06:35:13.306Z,46.27
2018-04-19T06:36:13.392Z,46
2018-04-19T06:37:13.073Z,45.61
2018-04-19T06:38:13.349Z,44.83
2018-04-19T06:39:13.350Z,44.56
2018-04-19T06:40:13.356Z,44.56
2018-04-19T06:41:13.365Z,44.17
2018-04-19T06:42:13.119Z,44.37
2018-04-19T06:43:13.387Z,43.9
2018-04-19T06:44:13.400Z,43.51
2018-04-19T06:45:13.407Z,43.04
2018-04-19T06:46:13.159Z,42.36
2018-04-19T06:47:13.173Z,41.99
2018-04-19T06:48:13.434Z,41.8
2018-04-19T06:49:13.443Z,41.21
2018-04-19T06:50:13.463Z,41.03
2018-04-19T06:51:13.512Z,41.03
2018-04-19T06:52:13.489Z,41.03
2018-04-19T06:53:13.488Z,40.55
2018-04-19T06:54:13.541Z,40.27
2018-04-19T06:55:13.517Z,40.08
2018-04-19T06:56:13.521Z,39.49
2018-04-19T06:57:13.531Z,39.51
2018-04-19T06:58:13.297Z,39.12
2018-04-19T06:59:13.556Z,38.82
2018-04-19T07:00:13.313Z,38.84
2018-04-19T07:01:13.577Z,38.45
2018-04-19T07:02:13.589Z,38.65
2018-04-19T07:03:13.601Z,38.35
2018-04-19T07:04:13.620Z,38.06
2018-04-19T07:05:13.624Z,37.88
2018-04-19T07:06:13.642Z,37.29
2018-04-19T07:07:13.904Z,37.51
2018-04-19T07:09:13.679Z,37.41
2018-04-19T07:11:13.693Z,37.12
2018-04-19T07:12:13.721Z,37.04
2018-04-19T07:13:13.470Z,37.04
2018-04-19T07:14:13.478Z,36.94
2018-04-19T07:15:13.747Z,36.57
2018-04-19T07:16:13.767Z,36.27
2018-04-19T07:17:13.767Z,35.97
2018-04-19T07:18:13.796Z,35.58
2018-04-19T07:19:13.795Z,36.09
2018-04-19T07:20:13.826Z,35.99
2018-04-19T07:21:13.563Z,35.21
2018-04-19T07:22:13.826Z,35.41
2018-04-19T07:23:13.845Z,35.21
2018-04-19T07:24:13.601Z,35.31
2018-04-19T07:25:13.613Z,35.21
2018-04-19T07:26:13.878Z,35.31
2018-04-19T07:27:13.893Z,35.02
2018-04-19T07:28:13.907Z,35.02
2018-04-19T07:29:13.915Z,35.02
2018-04-19T07:30:13.678Z,34.72
2018-04-19T07:31:13.947Z,34.42
2018-04-19T07:32:14.064Z,34.64
2018-04-19T07:33:13.975Z,34.33
2018-04-19T07:34:13.981Z,34.33
2018-04-19T07:35:13.996Z,34.42
2018-04-19T07:36:14.018Z,34.72
2018-04-19T07:37:14.038Z,34.62
2018-04-19T07:38:14.292Z,33.85
2018-04-19T07:39:14.061Z,34.25
2018-04-19T07:40:14.064Z,34.33
2018-04-19T07:41:14.080Z,34.44
2018-04-19T07:42:14.101Z,34.25
2018-04-19T07:43:14.152Z,34.44
2018-04-19T07:44:14.164Z,34.64
2018-04-19T07:45:14.161Z,33.75
2018-04-19T07:46:13.898Z,33.95
2018-04-19T07:47:14.163Z,34.25
2018-04-19T07:48:14.253Z,34.25
2018-04-19T07:49:14.204Z,34.34
2018-04-19T07:50:14.218Z,33.64
2018-04-19T07:51:14.227Z,33.54
2018-04-19T07:52:14.241Z,34.41
2018-04-19T07:53:14.268Z,35.29
2018-04-19T07:54:14.277Z,34.9
2018-04-19T07:55:14.301Z,34.98
2018-04-19T07:56:14.076Z,34.9
2018-04-19T07:57:14.087Z,34.78
2018-04-19T07:58:14.335Z,34.8
2018-04-19T07:59:14.366Z,34.88
2018-04-19T08:00:14.373Z,34.9
2018-04-19T08:01:14.401Z,35
2018-04-19T08:02:14.400Z,34.78
2018-04-19T08:03:14.422Z,34.8
2018-04-19T08:04:14.431Z,34.49
2018-04-19T08:05:14.214Z,34.61
2018-04-19T08:06:14.501Z,34.31
2018-04-19T08:07:14.479Z,34.31
2018-04-19T08:08:14.240Z,34.7
2018-04-19T08:09:14.750Z,35
2018-04-19T08:10:14.515Z,35
2018-04-19T08:11:14.614Z,34.88
2018-04-19T08:12:14.549Z,35.27
2018-04-19T08:13:14.571Z,35.35
2018-04-19T08:14:14.583Z,34.96
2018-04-19T08:15:14.338Z,36.04
2018-04-19T08:16:14.604Z,36.32
2018-04-19T08:17:14.619Z,36.32
2018-04-19T08:18:14.624Z,36.9
2018-04-19T08:19:14.646Z,37.19
2018-04-19T08:20:14.396Z,36.51
2018-04-19T08:21:14.408Z,36.22
2018-04-19T08:22:14.751Z,36.98
2018-04-19T08:23:14.702Z,37.37
2018-04-19T08:24:14.714Z,37.16
2018-04-19T08:25:14.716Z,37.43
2018-04-19T08:26:14.749Z,37.73
2018-04-19T08:27:14.487Z,38.1
2018-04-19T08:28:14.775Z,38.4
2018-04-19T08:29:14.771Z,38.38
2018-04-19T08:30:14.781Z,39.04
2018-04-19T08:31:14.787Z,39.33
2018-04-19T08:32:14.818Z,40.39
2018-04-19T08:33:14.820Z,40.06
2018-04-19T08:34:14.854Z,41.42
2018-04-19T08:35:14.836Z,41.5
2018-04-19T08:36:14.852Z,42.16
2018-04-19T08:37:14.880Z,42.94
2018-04-19T08:38:14.872Z,43.01
2018-04-19T08:39:14.889Z,43.87
2018-04-19T08:40:14.920Z,44.84
2018-04-19T08:41:14.894Z,45.31
2018-04-19T08:42:14.939Z,45.4
2018-04-19T08:43:15.973Z,45.97
2018-04-19T08:44:14.987Z,47.13
2018-04-19T08:45:14.965Z,47.01
2018-04-19T08:46:14.936Z,47.66
2018-04-19T08:47:14.937Z,47.57
2018-04-19T08:48:14.951Z,48.61
2018-04-19T08:49:15.033Z,48.71
2018-04-19T08:50:14.993Z,49.46
2018-04-19T08:51:14.718Z,49.66
2018-04-19T08:52:14.974Z,50.41
2018-04-19T08:53:14.979Z,50.7
2018-04-19T08:54:14.986Z,51.28
2018-04-19T08:55:14.987Z,51.74
2018-04-19T08:56:15.020Z,51.35
2018-04-19T08:57:14.746Z,51.64
2018-04-19T08:58:15.003Z,51.64
2018-04-19T08:59:15.005Z,51.9
2018-04-19T09:00:15.027Z,52.2
2018-04-19T09:01:15.019Z,52.49
2018-04-19T09:02:15.038Z,53.36
2018-04-19T09:03:15.026Z,53.65
2018-04-19T09:04:15.044Z,53.17
2018-04-19T09:05:15.030Z,54.71
2018-04-19T09:06:15.038Z,54.79
2018-04-19T09:07:15.042Z,54.01
2018-04-19T09:08:15.040Z,54.79
2018-04-19T09:09:15.045Z,55.94
2018-04-19T09:10:15.057Z,55.56
2018-04-19T09:11:15.063Z,55.63
2018-04-19T09:12:15.055Z,55.92
2018-04-19T09:13:15.058Z,55.63
2018-04-19T09:14:15.069Z,55.92
2018-04-19T09:15:15.066Z,54.95
2018-04-19T09:16:15.067Z,55.15
2018-04-19T09:17:15.083Z,54.95
2018-04-19T09:18:15.072Z,54.95
2018-04-19T09:19:15.074Z,54.66
2018-04-19T09:20:15.082Z,55.24
2018-04-19T09:21:14.829Z,55.89
2018-04-19T09:22:15.084Z,55.89
2018-04-19T09:23:14.835Z,55.99
2018-04-19T09:24:15.109Z,56.09
2018-04-19T09:25:15.093Z,55.7
2018-04-19T09:26:15.111Z,55.7
2018-04-19T09:27:15.102Z,55.79
2018-04-19T09:28:15.116Z,55.51
2018-04-19T09:29:14.849Z,55.92
2018-04-19T09:30:15.116Z,55.73
2018-04-19T09:31:15.109Z,55.89
2018-04-19T09:32:15.326Z,55.92
2018-04-19T09:33:15.115Z,55.89
2018-04-19T09:34:15.223Z,55.89
2018-04-19T09:35:14.874Z,55.6
2018-04-19T09:36:15.150Z,56.18
2018-04-19T09:37:15.125Z,55.82
2018-04-19T09:38:15.127Z,55.92
2018-04-19T09:39:15.160Z,55.63
2018-04-19T09:40:15.146Z,55.82
2018-04-19T09:41:15.128Z,55.73
2018-04-19T09:42:15.136Z,55.82
2018-04-19T09:43:15.138Z,55.73
2018-04-19T09:44:15.133Z,56.11
2018-04-19T09:45:15.137Z,56.21
2018-04-19T09:46:15.137Z,56.02
2018-04-19T09:47:15.147Z,56.21
2018-04-19T09:48:15.145Z,55.92
2018-04-19T09:49:15.154Z,56.11
2018-04-19T09:50:15.156Z,56.5
2018-04-19T09:51:15.158Z,56.4
2018-04-19T09:52:15.154Z,56.79
2018-04-19T09:53:15.170Z,56.98
2018-04-19T09:54:15.468Z,56.98
2018-04-19T09:55:15.171Z,56.88
2018-04-19T09:56:15.162Z,56.88
2018-04-19T09:57:14.908Z,56.88
2018-04-19T09:58:15.185Z,56.4
2018-04-19T09:59:15.379Z,56.21
2018-04-19T10:00:14.916Z,56.6
2018-04-19T10:01:15.190Z,56.6
2018-04-19T10:02:15.172Z,56.88
2018-04-19T10:03:15.185Z,56.4
2018-04-19T10:04:15.285Z,56.6
2018-04-19T10:05:15.181Z,56.21
2018-04-19T10:06:15.192Z,56.4
2018-04-19T10:07:15.186Z,56.4
2018-04-19T10:08:14.932Z,56.3
2018-04-19T10:09:15.186Z,55.76
2018-04-19T10:10:15.236Z,55.94
2018-04-19T10:11:15.206Z,56.3
2018-04-19T10:12:15.576Z,56.5
2018-04-19T10:13:15.195Z,56.88
2018-04-19T10:14:15.225Z,56.92
2018-04-19T10:15:15.203Z,56.72
2018-04-19T10:16:15.214Z,56.43
2018-04-19T10:17:15.203Z,56.04
2018-04-19T10:18:15.205Z,56.3
2018-04-19T10:19:15.210Z,56.3
2018-04-19T10:20:15.211Z,56.7
2018-04-19T10:21:15.311Z,56.88
2018-04-19T10:22:14.963Z,56.6
2018-04-19T10:23:15.226Z,57.08
2018-04-19T10:24:15.245Z,56.98
2018-04-19T10:25:15.223Z,56.88
2018-04-19T10:26:15.229Z,56.6
2018-04-19T10:27:15.255Z,56.5
2018-04-19T10:28:15.235Z,56.5
2018-04-19T10:29:15.240Z,56.79
2018-04-19T10:30:15.233Z,57.37
2018-04-19T10:31:14.982Z,57.18
2018-04-19T10:32:15.240Z,56.4
2018-04-19T10:33:15.238Z,56.3
2018-04-19T10:34:15.240Z,56.21
2018-04-19T10:35:15.242Z,56.4
2018-04-19T10:36:15.244Z,56.21
2018-04-19T10:37:15.250Z,56.7
2018-04-19T10:38:15.249Z,56.98
2018-04-19T10:39:15.000Z,56.98
2018-04-19T10:40:15.255Z,57.37
2018-04-19T10:41:15.308Z,56.6
2018-04-19T10:42:15.023Z,57.28
2018-04-19T10:43:15.007Z,56.88
2018-04-19T10:44:15.270Z,56.6
2018-04-19T10:45:15.010Z,56.21
2018-04-19T10:46:15.265Z,56.3
2018-04-19T10:47:15.014Z,56.21
2018-04-19T10:48:15.277Z,55.82
2018-04-19T10:49:15.272Z,56.02
2018-04-19T10:50:15.030Z,55.43
2018-04-19T10:51:15.278Z,56.02
2018-04-19T10:52:15.283Z,55.82
2018-04-19T10:53:15.282Z,55.92
2018-04-19T10:54:15.327Z,56.09
2018-04-19T10:55:15.284Z,56.76
2018-04-19T10:56:15.292Z,56.37
2018-04-19T10:57:15.290Z,56.28
2018-04-19T10:58:15.298Z,56.02
2018-04-19T10:59:15.296Z,56.28
2018-04-19T11:00:15.306Z,56.18
2018-04-19T11:01:15.062Z,56.09
2018-04-19T11:02:15.043Z,56.57
2018-04-19T11:03:15.305Z,56.76
2018-04-19T11:04:15.302Z,56.7
2018-04-19T11:05:15.307Z,56.7
2018-04-19T11:06:15.303Z,56.4
2018-04-19T11:07:15.304Z,56.37
2018-04-19T11:08:15.312Z,56.67
2018-04-19T11:09:15.307Z,56.57
2018-04-19T11:10:15.364Z,57.15
2018-04-19T11:11:15.313Z,57.24
2018-04-19T11:12:15.312Z,57.28
2018-04-19T11:13:15.314Z,56.57
2018-04-19T11:14:15.329Z,56.5
2018-04-19T11:15:15.318Z,57.66
2018-04-19T11:16:15.327Z,56.5
2018-04-19T11:17:15.329Z,56.5
2018-04-19T11:18:15.322Z,56.7
2018-04-19T11:19:15.073Z,56.6
2018-04-19T11:20:15.077Z,56.6
2018-04-19T11:21:15.345Z,56.3
2018-04-19T11:22:15.079Z,57.46
2018-04-19T11:23:15.348Z,56.6
2018-04-19T11:24:15.081Z,56.4
2018-04-19T11:25:15.334Z,56.21
2018-04-19T11:26:15.349Z,56.21
2018-04-19T11:27:15.364Z,55.92
2018-04-19T11:28:15.348Z,56.4
2018-04-19T11:29:15.376Z,56.4
2018-04-19T11:30:15.348Z,56.7
2018-04-19T11:31:15.366Z,56.4
2018-04-19T11:32:15.376Z,55.92
2018-04-19T11:33:15.357Z,56.02
2018-04-19T11:34:15.357Z,56.11
2018-04-19T11:35:15.357Z,55.82
2018-04-19T11:36:15.375Z,55.73
2018-04-19T11:37:15.363Z,55.82
2018-04-19T11:38:15.353Z,56.3
2018-04-19T11:39:15.361Z,56.28
2018-04-19T11:40:15.104Z,56.18
2018-04-19T11:41:15.392Z,56.3
2018-04-19T11:42:15.378Z,56.4
2018-04-19T11:43:15.370Z,56.7
2018-04-19T11:44:15.370Z,57.37
2018-04-19T11:45:15.365Z,56.98
2018-04-19T11:46:15.375Z,56.98
2018-04-19T11:47:15.403Z,56.21
2018-04-19T11:48:15.373Z,56.34
2018-04-19T11:49:15.372Z,55.43
2018-04-19T11:50:15.119Z,55.73
2018-04-19T11:51:15.384Z,55.82
2018-04-19T11:52:15.376Z,55.92
2018-04-19T11:53:15.126Z,55.92
2018-04-19T11:54:15.131Z,55.82
2018-04-19T11:55:15.129Z,56.21
2018-04-19T11:56:15.388Z,55.82
2018-04-19T11:57:15.393Z,55.82
2018-04-19T11:58:15.388Z,55.92
2018-04-19T11:59:15.136Z,55.56
2018-04-19T12:00:15.391Z,55.63
2018-04-19T12:01:15.525Z,55.24
2018-04-19T12:02:15.490Z,55.24
2018-04-19T12:03:15.410Z,55.82
2018-04-19T12:04:15.412Z,55.92
2018-04-19T12:05:15.402Z,55.82
2018-04-19T12:06:15.152Z,55.34
2018-04-19T12:07:15.442Z,54.95
2018-04-19T12:08:15.417Z,55.34
2018-04-19T12:09:15.436Z,54.79
2018-04-19T12:10:15.418Z,54.88
2018-04-19T12:11:15.412Z,54.79
2018-04-19T12:12:15.411Z,54.21
2018-04-19T12:13:15.421Z,54.59
2018-04-19T12:14:15.420Z,54.59
2018-04-19T12:15:15.163Z,54.11
2018-04-19T12:16:15.423Z,54.59
2018-04-19T12:17:15.423Z,55.27
2018-04-19T12:18:15.432Z,55.94
2018-04-19T12:19:15.483Z,55.85
2018-04-19T12:20:15.428Z,55.85
2018-04-19T12:21:15.433Z,55.27
2018-04-19T12:22:15.426Z,54.91
2018-04-19T12:23:15.177Z,55.58
2018-04-19T12:24:15.430Z,56.07
2018-04-19T12:25:15.449Z,54.52
2018-04-19T12:26:15.464Z,53.75
2018-04-19T12:27:15.436Z,52.68
2018-04-19T12:28:15.440Z,52.58
2018-04-19T12:29:15.441Z,53.75
2018-04-19T12:30:15.202Z,53.36
2018-04-19T12:31:15.447Z,53.85
2018-04-19T12:32:15.445Z,53.36
2018-04-19T12:33:15.465Z,53.45
2018-04-19T12:34:15.449Z,53.45
2018-04-19T12:35:15.451Z,53.26
2018-04-19T12:36:15.459Z,52.87
2018-04-19T12:37:15.464Z,52.78
2018-04-19T12:38:15.466Z,52.87
2018-04-19T12:39:15.458Z,52.78
2018-04-19T12:40:15.461Z,52.49
2018-04-19T12:41:15.215Z,52.85
2018-04-19T12:42:15.464Z,52.85
2018-04-19T12:43:15.470Z,53.63
2018-04-19T12:44:15.468Z,54.01
2018-04-19T12:45:15.473Z,53.65
2018-04-19T12:46:15.472Z,53.45
2018-04-19T12:47:15.477Z,53.45
2018-04-19T12:48:15.223Z,53.65
2018-04-19T12:49:15.492Z,53.45
2018-04-19T12:50:15.480Z,53.55
2018-04-19T12:51:15.505Z,54.13
2018-04-19T12:52:15.483Z,52.78
2018-04-19T12:53:15.485Z,52.68
2018-04-19T12:54:15.509Z,53.07
2018-04-19T12:55:15.239Z,53.07
2018-04-19T12:56:15.496Z,53.45
2018-04-19T12:57:15.507Z,53.26
2018-04-19T12:58:15.264Z,53.07